Time;durP1;ratioP1;P1;durP2;ratioP2;P2;SDS_P1;SDS_P2;PMS_P1;PMS_P2;Temp;Humidity;BMP_temperature;BMP_pressure;BME280_temperature;BME280_humidity;BME280_pressure;Samples;Min_cycle;Max_cycle;Signal;HPM_P1;HPM_P2
2022/10/31 00:01:28;;;;;;;0.40;0.20;;;;;;;13.95;53.19;95693.88;5133329;27;20421;-55
2022/10/31 00:03:57;;;;;;;1.07;1.07;;;;;;;14.02;52.83;95694.31;5132592;27;20432;-55
2022/10/31 00:06:26;;;;;;;0.40;0.30;;;;;;;14.02;53.18;95689.00;5132728;27;20430;-55
2022/10/31 00:08:55;;;;;;;0.47;0.33;;;;;;;13.92;53.23;95683.75;5133258;27;20792;-55
2022/10/31 00:11:24;;;;;;;0.47;0.30;;;;;;;13.98;53.76;95679.19;5132979;27;20914;-54
2022/10/31 00:13:53;;;;;;;0.77;0.70;;;;;;;13.38;55.11;95685.03;5132303;27;20434;-54
2022/10/31 00:16:23;;;;;;;0.40;0.30;;;;;;;13.64;54.26;95689.06;5133324;27;20412;-55
2022/10/31 00:18:52;;;;;;;0.60;0.30;;;;;;;13.72;53.70;95686.59;5132460;27;20444;-55
2022/10/31 00:21:22;;;;;;;1.10;0.60;;;;;;;13.74;53.44;95688.97;5133150;27;20425;-55
2022/10/31 00:23:50;;;;;;;0.90;0.90;;;;;;;13.59;54.27;95689.91;5132165;27;20437;-55
2022/10/31 00:26:19;;;;;;;0.40;0.33;;;;;;;13.54;54.56;95689.16;5132340;27;20484;-55
2022/10/31 00:28:48;;;;;;;0.60;0.60;;;;;;;13.41;54.78;95687.91;5133074;27;20819;-55
2022/10/31 00:31:16;;;;;;;0.40;0.20;;;;;;;13.10;55.70;95695.31;5132767;27;20569;-54
2022/10/31 00:33:45;;;;;;;0.90;0.70;;;;;;;13.06;56.19;95691.59;5132303;27;20433;-55
2022/10/31 00:36:15;;;;;;;1.27;0.37;;;;;;;12.98;56.55;95689.50;5131714;27;20437;-54
2022/10/31 00:38:45;;;;;;;3.93;0.50;;;;;;;12.79;56.58;95691.19;5132341;27;20440;-54
2022/10/31 00:41:15;;;;;;;0.40;0.30;;;;;;;13.11;56.09;95691.56;5132354;27;20432;-54
2022/10/31 00:43:44;;;;;;;0.53;0.40;;;;;;;13.53;54.85;95693.69;5131704;27;20438;-54
2022/10/31 00:46:13;;;;;;;0.40;0.30;;;;;;;13.54;54.68;95671.31;5132379;27;20477;-55
2022/10/31 00:48:41;;;;;;;0.50;0.40;;;;;;;13.14;56.38;95690.22;5132435;27;20438;-54
2022/10/31 00:51:10;;;;;;;1.33;1.23;;;;;;;13.31;55.48;95687.97;5132372;27;20440;-54
2022/10/31 00:53:38;;;;;;;0.60;0.40;;;;;;;13.26;56.11;95693.34;5132497;27;20434;-54
2022/10/31 00:56:08;;;;;;;0.60;0.50;;;;;;;13.15;55.47;95697.97;5132383;27;20436;-54
2022/10/31 00:58:38;;;;;;;0.50;0.30;;;;;;;12.77;55.24;95626.03;5132604;27;20512;-54
2022/10/31 01:01:06;;;;;;;1.57;1.57;;;;;;;13.37;55.01;95689.56;5132375;27;20433;-54
2022/10/31 01:03:35;;;;;;;0.50;0.30;;;;;;;12.53;55.73;95612.59;5132301;27;20440;-54
2022/10/31 01:06:06;;;;;;;0.40;0.30;;;;;;;12.60;56.77;95690.19;5132203;27;20472;-54
2022/10/31 01:08:36;;;;;;;0.50;0.40;;;;;;;12.77;56.30;95682.69;5132172;27;20445;-54
2022/10/31 01:11:14;;;;;;;0.47;0.30;;;;;;;13.11;55.95;95688.13;5131747;27;20444;-54
2022/10/31 01:13:43;;;;;;;0.40;0.40;;;;;;;13.22;55.37;95687.00;5132406;27;20437;-54
2022/10/31 01:16:13;;;;;;;10.13;0.53;;;;;;;13.35;54.51;95686.38;5132755;27;20929;-54
2022/10/31 01:18:42;;;;;;;0.50;0.30;;;;;;;13.29;54.94;95687.47;5136663;27;20429;-54
2022/10/31 01:21:12;;;;;;;0.40;0.27;;;;;;;13.20;54.77;95678.50;5135978;27;20437;-54
2022/10/31 01:23:41;;;;;;;0.97;0.97;;;;;;;13.25;55.24;95683.78;5136175;27;20440;-54
2022/10/31 01:26:14;;;;;;;0.43;0.43;;;;;;;13.02;56.42;95684.44;5135889;27;20489;-54
2022/10/31 01:28:46;;;;;;;0.40;0.30;;;;;;;13.16;55.29;95688.09;5136067;27;20439;-53
2022/10/31 01:31:15;;;;;;;0.50;0.50;;;;;;;13.29;55.51;95682.94;5136071;27;20440;-53
2022/10/31 01:33:44;;;;;;;1.17;1.07;;;;;;;13.25;55.09;95683.78;5136047;27;20446;-53
2022/10/31 01:36:15;;;;;;;0.40;0.20;;;;;;;12.91;56.05;95677.56;5136018;27;20934;-53
2022/10/31 01:38:43;;;;;;;0.50;0.30;;;;;;;12.31;58.07;95679.44;5135571;27;20912;-53
2022/10/31 01:41:17;;;;;;;0.77;0.40;;;;;;;12.91;56.44;95675.69;5136408;27;20425;-53
2022/10/31 01:43:48;;;;;;;0.50;0.30;;;;;;;13.14;55.67;95679.59;5135899;27;20431;-53
2022/10/31 01:46:20;;;;;;;0.50;0.30;;;;;;;13.15;55.54;95686.50;5135658;27;20465;-53
2022/10/31 01:48:49;;;;;;;0.40;0.27;;;;;;;13.22;55.67;95681.66;5135732;27;20441;-53
2022/10/31 01:51:21;;;;;;;0.40;0.20;;;;;;;13.20;55.65;95678.50;5136165;27;20421;-53
2022/10/31 01:53:52;;;;;;;0.40;0.27;;;;;;;13.07;55.85;95690.56;5135877;27;20432;-53
2022/10/31 01:56:22;;;;;;;0.80;0.80;;;;;;;13.04;56.04;95692.91;5135762;27;20448;-53
2022/10/31 01:58:52;;;;;;;0.40;0.27;;;;;;;12.41;58.34;95708.63;5134873;27;20432;-53
2022/10/31 02:01:22;;;;;;;0.40;0.30;;;;;;;12.15;59.28;95711.59;5135685;27;20425;-54
2022/10/31 02:03:50;;;;;;;0.40;0.30;;;;;;;11.99;60.59;95703.66;5135606;27;20476;-54
2022/10/31 02:06:28;;;;;;;0.70;0.70;;;;;;;12.13;60.55;95687.97;5135449;27;20481;-54
2022/10/31 02:09:00;;;;;;;0.40;0.30;;;;;;;11.51;62.60;95698.09;5135719;27;20935;-54
2022/10/31 02:11:30;;;;;;;0.40;0.30;;;;;;;11.41;62.22;95705.00;5135641;27;20421;-54
2022/10/31 02:14:00;;;;;;;0.50;0.50;;;;;;;12.10;59.75;95684.00;5135130;27;20429;-53
2022/10/31 02:16:28;;;;;;;0.50;0.50;;;;;;;12.18;59.08;95693.28;5135337;27;20417;-53
2022/10/31 02:18:57;;;;;;;0.50;0.30;;;;;;;12.18;59.22;95692.47;5135335;27;20429;-53
2022/10/31 02:21:33;;;;;;;0.57;0.57;;;;;;;12.28;58.98;95701.22;5135125;27;20820;-53
2022/10/31 02:24:38;;;;;;;0.83;0.83;;;;;;;11.97;59.69;95692.53;5134991;27;20432;-54
2022/10/31 02:27:24;;;;;;;2.53;1.13;;;;;;;12.33;59.11;95706.53;5131330;27;20489;-53
2022/10/31 02:30:15;;;;;;;0.50;0.43;;;;;;;12.21;58.96;95708.69;5134104;27;20420;-53
2022/10/31 02:33:08;;;;;;;0.87;0.87;;;;;;;11.08;62.55;95721.38;5135330;27;20437;-53
2022/10/31 02:35:43;;;;;;;0.50;0.40;;;;;;;10.72;64.04;95717.06;5134844;27;20458;-53
2022/10/31 02:38:22;;;;;;;1.70;1.53;;;;;;;10.60;65.74;95719.13;5135187;27;20431;-53
2022/10/31 02:41:00;;;;;;;0.73;0.63;;;;;;;11.45;62.78;95716.69;5134867;27;20437;-53
2022/10/31 02:43:36;;;;;;;0.50;0.30;;;;;;;11.76;60.78;95716.72;5134655;27;20430;-53
2022/10/31 02:46:11;;;;;;;0.50;0.50;;;;;;;11.59;61.00;95726.75;5134832;27;21018;-53
2022/10/31 02:48:45;;;;;;;1.83;0.77;;;;;;;11.67;60.63;95728.88;5134707;27;20542;-53
2022/10/31 02:51:14;;;;;;;4.57;0.60;;;;;;;12.00;60.15;95731.03;5134547;27;20918;-53
2022/10/31 02:53:42;;;;;;;0.50;0.50;;;;;;;11.94;60.14;95732.91;5134227;27;20443;-53
2022/10/31 02:56:14;;;;;;;2.27;0.80;;;;;;;11.94;60.76;95734.78;5134584;27;20421;-54
2022/10/31 02:58:48;;;;;;;0.40;0.30;;;;;;;11.76;61.33;95722.84;5134406;27;20421;-54
2022/10/31 03:01:40;;;;;;;0.40;0.30;;;;;;;11.21;63.30;95725.41;5134174;27;20436;-53
2022/10/31 03:04:26;;;;;;;1.37;1.37;;;;;;;11.20;65.12;95732.56;5134450;27;20461;-53
2022/10/31 03:07:01;;;;;;;0.50;0.43;;;;;;;11.95;62.55;95734.50;5133978;27;20483;-53
2022/10/31 03:09:35;;;;;;;1.23;1.23;;;;;;;12.28;61.21;95725.16;5134267;27;20424;-53
2022/10/31 03:12:08;;;;;;;2.30;2.20;;;;;;;11.73;63.20;95725.22;5133343;27;20425;-54
2022/10/31 03:14:44;;;;;;;0.77;0.77;;;;;;;11.77;62.45;95711.13;5134186;27;20437;-53
2022/10/31 03:17:21;;;;;;;1.67;0.70;;;;;;;12.07;61.72;95716.41;5133646;27;20421;-53
2022/10/31 03:19:55;;;;;;;0.53;0.47;;;;;;;11.99;60.91;95697.59;5133517;27;20492;-54
2022/10/31 03:22:26;;;;;;;0.87;0.40;;;;;;;12.41;59.71;95724.59;5133642;27;20432;-54
2022/10/31 03:24:56;;;;;;;5.93;0.60;;;;;;;12.52;59.09;95720.81;5133629;27;20465;-54
2022/10/31 03:27:27;;;;;;;0.50;0.30;;;;;;;11.86;61.48;95724.69;5133541;27;20480;-53
2022/10/31 03:29:59;;;;;;;0.40;0.30;;;;;;;11.93;61.74;95730.50;5133710;27;20438;-53
2022/10/31 03:32:32;;;;;;;0.40;0.40;;;;;;;12.14;61.33;95728.63;5133628;27;20422;-53
2022/10/31 03:35:06;;;;;;;0.60;0.60;;;;;;;11.98;59.65;95690.66;5133826;27;20950;-53
2022/10/31 03:37:36;;;;;;;0.63;0.30;;;;;;;11.82;61.91;95740.34;5133700;27;20437;-53
2022/10/31 03:40:08;;;;;;;0.40;0.30;;;;;;;12.03;60.76;95738.47;5133277;27;20792;-53
2022/10/31 03:42:42;;;;;;;0.40;0.40;;;;;;;12.10;60.52;95739.00;5133777;27;20424;-54
2022/10/31 03:45:15;;;;;;;0.40;0.30;;;;;;;11.92;61.39;95737.69;5132943;27;20453;-53
2022/10/31 03:47:45;;;;;;;0.90;0.90;;;;;;;12.07;61.12;95739.53;5133523;27;20556;-53
2022/10/31 03:50:16;;;;;;;0.63;0.60;;;;;;;12.08;60.57;95733.97;5133326;27;20430;-53
2022/10/31 03:52:53;;;;;;;0.40;0.27;;;;;;;12.31;59.86;95729.94;5132729;27;20423;-53
2022/10/31 03:55:29;;;;;;;1.43;0.60;;;;;;;11.52;61.65;95686.41;5132975;27;20434;-53
2022/10/31 03:58:01;;;;;;;0.77;0.77;;;;;;;11.86;61.86;95738.78;5132927;27;20437;-53
2022/10/31 04:00:33;;;;;;;0.50;0.40;;;;;;;12.19;60.04;95742.72;5133283;27;20466;-53
2022/10/31 04:03:06;;;;;;;1.60;1.50;;;;;;;12.27;59.92;95754.66;5133295;27;20430;-53
2022/10/31 04:05:39;;;;;;;0.77;0.50;;;;;;;12.28;59.87;95741.09;5132958;27;20490;-54
2022/10/31 04:08:11;;;;;;;0.50;0.50;;;;;;;12.35;59.63;95744.25;5133244;27;20916;-53
2022/10/31 04:10:43;;;;;;;0.73;0.73;;;;;;;12.49;60.00;95747.97;5133278;27;20436;-54
2022/10/31 04:13:15;;;;;;;0.50;0.30;;;;;;;12.37;59.76;95738.69;5132735;27;20430;-54
2022/10/31 04:15:45;;;;;;;4.90;0.60;;;;;;;12.53;60.02;95745.53;5132990;27;20493;-54
2022/10/31 04:18:14;;;;;;;0.57;0.40;;;;;;;12.34;60.12;95739.22;5132609;27;20425;-53
2022/10/31 04:20:43;;;;;;;0.70;0.70;;;;;;;12.30;60.04;95754.09;5132993;27;20952;-53
2022/10/31 04:23:20;;;;;;;0.83;0.83;;;;;;;12.44;59.77;95747.19;5132780;27;20428;-53
2022/10/31 04:25:48;;;;;;;0.93;0.87;;;;;;;12.23;60.48;95748.28;5132407;27;21156;-53
2022/10/31 04:28:16;;;;;;;0.40;0.30;;;;;;;12.51;59.13;95743.16;5132719;27;20518;-54
2022/10/31 04:30:45;;;;;;;0.40;0.40;;;;;;;12.46;59.41;95745.84;5132422;27;21005;-54
2022/10/31 04:33:15;;;;;;;0.60;0.40;;;;;;;12.42;60.10;95744.00;5132746;27;20536;-54
2022/10/31 04:35:45;;;;;;;0.50;0.43;;;;;;;12.51;59.96;95756.47;5132383;27;20433;-54
2022/10/31 04:38:13;;;;;;;0.40;0.30;;;;;;;12.45;60.31;95746.91;5132052;27;20930;-54
2022/10/31 04:40:41;;;;;;;0.60;0.60;;;;;;;12.53;59.91;95756.19;5132578;27;20438;-54
2022/10/31 04:43:10;;;;;;;0.50;0.30;;;;;;;12.27;60.31;95755.44;5132618;27;20425;-54
2022/10/31 04:45:38;;;;;;;6.53;1.80;;;;;;;11.70;62.18;95755.75;5132580;27;20422;-54
2022/10/31 04:48:07;;;;;;;0.87;0.80;;;;;;;11.91;62.15;95760.00;5132428;27;20464;-53
2022/10/31 04:50:35;;;;;;;1.27;0.80;;;;;;;11.51;64.29;95756.50;5132030;27;20441;-55
2022/10/31 04:53:05;;;;;;;5.53;1.00;;;;;;;11.34;64.70;95754.06;5132516;27;20454;-55
2022/10/31 04:55:33;;;;;;;0.93;0.93;;;;;;;10.93;66.71;95769.09;5132539;27;20902;-54
2022/10/31 04:58:01;;;;;;;0.40;0.30;;;;;;;11.30;64.63;95761.78;5132189;27;20444;-53
2022/10/31 05:00:31;;;;;;;0.53;0.40;;;;;;;11.50;64.20;95755.72;5132309;27;20452;-53
2022/10/31 05:03:02;;;;;;;1.33;0.60;;;;;;;11.41;63.60;95759.91;5132406;27;20429;-53
2022/10/31 05:05:32;;;;;;;1.03;1.00;;;;;;;10.73;66.43;95766.34;5132259;27;20490;-53
2022/10/31 05:08:00;;;;;;;2.87;1.83;;;;;;;10.25;68.67;95782.53;5131432;27;20462;-53
2022/10/31 05:10:31;;;;;;;0.83;0.83;;;;;;;10.28;69.77;95769.56;5132263;27;20769;-53
2022/10/31 05:13:01;;;;;;;2.30;0.70;;;;;;;11.06;66.15;95775.75;5132075;27;20429;-53
2022/10/31 05:15:31;;;;;;;0.70;0.57;;;;;;;11.34;64.45;95773.47;5131804;27;20490;-53
2022/10/31 05:17:59;;;;;;;0.70;0.40;;;;;;;11.25;65.09;95787.50;5131938;27;20442;-53
2022/10/31 05:20:30;;;;;;;1.47;1.37;;;;;;;11.28;64.85;95785.09;5132318;27;20425;-53
2022/10/31 05:22:59;;;;;;;4.63;0.30;;;;;;;11.54;64.18;95785.97;5132356;27;20436;-53
2022/10/31 05:25:29;;;;;;;0.73;0.73;;;;;;;11.56;63.04;95764.47;5131732;27;20491;-53
2022/10/31 05:27:58;;;;;;;0.50;0.40;;;;;;;10.96;65.76;95794.28;5132192;27;20465;-53
2022/10/31 05:30:29;;;;;;;2.23;2.13;;;;;;;10.96;66.11;95792.44;5131909;27;20434;-53
2022/10/31 05:32:58;;;;;;;2.07;1.27;;;;;;;11.70;63.86;95789.47;5131133;27;20426;-53
2022/10/31 05:35:28;;;;;;;0.60;0.60;;;;;;;11.72;63.57;95797.97;5132111;27;20487;-52
2022/10/31 05:37:58;;;;;;;0.83;0.70;;;;;;;11.32;64.65;95796.81;5131997;27;20923;-53
2022/10/31 05:40:29;;;;;;;0.80;0.50;;;;;;;11.75;64.17;95808.06;5132027;27;20429;-53
2022/10/31 05:42:58;;;;;;;0.70;0.60;;;;;;;12.14;63.21;95787.91;5132130;27;20452;-53
2022/10/31 05:45:27;;;;;;;1.47;0.80;;;;;;;12.52;61.16;95799.81;5131868;27;20442;-53
2022/10/31 05:47:59;;;;;;;1.13;0.90;;;;;;;12.55;60.90;95786.75;5132224;27;20477;-53
2022/10/31 05:50:31;;;;;;;0.80;0.70;;;;;;;11.99;62.13;95801.97;5132129;27;20939;-54
2022/10/31 05:53:01;;;;;;;0.70;0.70;;;;;;;12.33;62.22;95806.72;5131602;27;20440;-54
2022/10/31 05:55:31;;;;;;;0.50;0.50;;;;;;;13.43;59.28;95808.28;5131812;27;20815;-55
2022/10/31 05:58:00;;;;;;;0.40;0.40;;;;;;;14.05;56.29;95737.47;5132262;27;20441;-55
2022/10/31 06:00:29;;;;;;;3.03;1.97;;;;;;;14.92;54.79;95809.19;5132089;27;20447;-54
2022/10/31 06:03:01;;;;;;;3.43;3.23;;;;;;;15.07;54.42;95789.53;5133316;27;20437;-55
2022/10/31 06:05:30;;;;;;;0.60;0.60;;;;;;;15.40;53.42;95809.94;5135257;27;20437;-55
2022/10/31 06:07:58;;;;;;;4.73;3.60;;;;;;;15.90;52.96;95816.47;5135687;27;20471;-56
2022/10/31 06:10:28;;;;;;;0.87;0.87;;;;;;;15.75;52.57;95806.00;5135942;27;20484;-56
2022/10/31 06:12:57;;;;;;;0.50;0.40;;;;;;;16.18;51.69;95804.81;5135519;27;20421;-56
2022/10/31 06:15:26;;;;;;;1.33;0.70;;;;;;;16.11;51.15;95791.03;5135289;27;20782;-56
2022/10/31 06:18:01;;;;;;;0.87;0.87;;;;;;;16.93;49.97;95797.34;5135183;27;20550;-57
2022/10/31 06:20:31;;;;;;;3.00;2.03;;;;;;;17.18;49.36;95809.44;5134957;27;20425;-57
2022/10/31 06:22:59;;;;;;;3.03;2.47;;;;;;;18.01;47.96;95779.50;5135163;27;20453;-57
2022/10/31 06:25:29;;;;;;;0.80;0.60;;;;;;;18.13;47.36;95800.44;5134859;27;20572;-58
2022/10/31 06:27:58;;;;;;;0.77;0.77;;;;;;;18.25;47.58;95803.34;5134834;27;20474;-58
2022/10/31 06:30:27;;;;;;;7.13;2.43;;;;;;;18.09;47.55;95804.81;5134785;27;20434;-60
2022/10/31 06:32:55;;;;;;;1.87;1.77;;;;;;;17.99;47.64;95813.09;5135404;27;20433;-60
2022/10/31 06:35:23;;;;;;;1.80;1.70;;;;;;;18.08;47.63;95804.03;5134711;27;20906;-60
2022/10/31 06:37:53;;;;;;;5.50;2.30;;;;;;;17.96;47.77;95819.06;5135151;27;20423;-59
2022/10/31 06:40:21;;;;;;;3.43;3.13;;;;;;;18.20;47.02;95823.06;5134618;27;20431;-58
2022/10/31 06:42:58;;;;;;;1.43;1.03;;;;;;;18.63;46.82;95826.03;5134536;27;20418;-57
2022/10/31 06:45:27;;;;;;;0.70;0.70;;;;;;;18.08;46.60;95828.19;5134990;27;20429;-58
2022/10/31 06:47:56;;;;;;;1.70;1.60;;;;;;;18.59;46.67;95813.56;5134634;27;21000;-57
2022/10/31 06:50:45;;;;;;;0.77;0.77;;;;;;;19.47;43.55;95820.56;5134096;27;20990;-56
2022/10/31 06:53:14;;;;;;;0.70;0.70;;;;;;;20.21;42.40;95824.75;5134477;27;20453;-56
2022/10/31 06:55:42;;;;;;;0.50;0.47;;;;;;;20.95;41.34;95808.31;5134692;27;20432;-55
2022/10/31 06:58:12;;;;;;;1.57;1.07;;;;;;;21.33;40.56;95803.75;5134437;27;21042;-56
2022/10/31 07:00:40;;;;;;;0.83;0.83;;;;;;;20.97;41.21;95819.59;5134501;27;20432;-56
2022/10/31 07:03:12;;;;;;;1.00;1.00;;;;;;;20.94;41.58;95809.44;5134591;27;20428;-56
2022/10/31 07:05:41;;;;;;;1.03;1.03;;;;;;;21.05;41.08;95807.97;5134171;27;20434;-56
2022/10/31 07:08:11;;;;;;;2.50;1.00;;;;;;;21.27;41.88;95812.34;5133825;27;20470;-56
2022/10/31 07:10:41;;;;;;;7.53;0.80;;;;;;;20.94;42.23;95806.75;5133991;27;20456;-56
2022/10/31 07:13:13;;;;;;;0.70;0.70;;;;;;;21.89;40.43;95796.28;5133957;27;20430;-55
2022/10/31 07:15:43;;;;;;;1.33;1.23;;;;;;;22.09;40.52;95788.19;5132736;27;20937;-55
2022/10/31 07:18:13;;;;;;;0.60;0.60;;;;;;;22.57;39.68;95798.38;5133960;27;20435;-56
2022/10/31 07:20:41;;;;;;;1.20;0.80;;;;;;;22.85;38.47;95768.88;5134262;27;20449;-56
2022/10/31 07:23:10;;;;;;;0.70;0.60;;;;;;;23.03;38.92;95782.97;5133666;27;20427;-55
2022/10/31 07:25:39;;;;;;;1.10;0.80;;;;;;;23.67;37.97;95783.88;5133549;27;20475;-54
2022/10/31 07:28:08;;;;;;;0.97;0.97;;;;;;;23.79;37.46;95775.75;5133933;27;20557;-54
2022/10/31 07:30:38;;;;;;;0.60;0.60;;;;;;;23.75;37.55;95784.91;5133412;27;20435;-53
2022/10/31 07:33:07;;;;;;;1.07;0.70;;;;;;;23.21;37.75;95777.00;5133993;27;20427;-53
2022/10/31 07:35:35;;;;;;;0.70;0.70;;;;;;;24.30;36.54;95778.78;5133575;27;20973;-53
2022/10/31 07:38:10;;;;;;;1.67;1.57;;;;;;;24.50;36.50;95775.06;5133588;27;20427;-52
2022/10/31 07:40:39;;;;;;;0.60;0.60;;;;;;;24.90;35.80;95775.78;5133507;27;20437;-53
2022/10/31 07:43:07;;;;;;;2.50;0.60;;;;;;;24.53;36.49;95793.34;5133387;27;20431;-52
2022/10/31 07:45:43;;;;;;;0.80;0.80;;;;;;;24.47;36.89;95775.75;5133197;27;20858;-52
2022/10/31 07:48:11;;;;;;;0.70;0.57;;;;;;;24.45;36.31;95780.75;5133212;27;20427;-52
2022/10/31 07:50:39;;;;;;;0.60;0.60;;;;;;;25.16;36.18;95778.75;5132292;27;20527;-52
2022/10/31 07:53:09;;;;;;;0.80;0.80;;;;;;;25.59;35.56;95764.28;5132087;27;20419;-52
2022/10/31 07:55:38;;;;;;;1.20;0.97;;;;;;;26.07;34.98;95759.50;5131852;27;20939;-52
2022/10/31 07:58:08;;;;;;;0.57;0.50;;;;;;;27.34;33.16;95759.16;5131918;27;20431;-52
2022/10/31 08:00:38;;;;;;;1.07;0.33;;;;;;;27.77;32.58;95757.88;5131836;27;20438;-52
2022/10/31 08:03:10;;;;;;;0.83;0.80;;;;;;;26.21;34.47;95767.97;5132385;27;20958;-52
2022/10/31 08:05:40;;;;;;;1.13;0.93;;;;;;;26.77;34.11;95762.84;5132889;27;20424;-52
2022/10/31 08:08:09;;;;;;;1.70;1.60;;;;;;;26.89;33.96;95743.66;5131700;27;20427;-52
2022/10/31 08:10:37;;;;;;;1.37;1.27;;;;;;;27.07;33.39;95763.75;5131406;27;20458;-52
2022/10/31 08:13:08;;;;;;;5.10;2.80;;;;;;;26.96;33.68;95751.91;5131006;27;21151;-52
2022/10/31 08:15:39;;;;;;;1.43;1.40;;;;;;;26.60;33.81;95726.00;5131704;27;20933;-52
2022/10/31 08:18:13;;;;;;;0.67;0.67;;;;;;;27.40;33.57;95738.66;5132135;27;20434;-52
2022/10/31 08:20:41;;;;;;;1.80;1.50;;;;;;;28.06;32.41;95755.16;5132096;27;21128;-53
2022/10/31 08:23:11;;;;;;;1.63;1.07;;;;;;;27.92;32.54;95684.13;5132676;27;20438;-53
2022/10/31 08:25:40;;;;;;;4.00;2.03;;;;;;;28.81;31.80;95741.25;5132808;27;20470;-53
2022/10/31 08:28:11;;;;;;;0.77;0.77;;;;;;;29.40;32.29;95728.47;5133467;27;20951;-53
2022/10/31 08:30:39;;;;;;;3.13;2.33;;;;;;;30.05;31.02;95737.50;5133073;27;20590;-53
2022/10/31 08:33:12;;;;;;;14.37;1.90;;;;;;;27.89;32.28;95752.97;5132880;27;20798;-53
2022/10/31 08:35:41;;;;;;;2.40;1.03;;;;;;;28.39;31.79;95699.09;5132797;27;20487;-53
2022/10/31 08:38:11;;;;;;;0.53;0.53;;;;;;;30.04;31.44;95746.88;5133232;27;20433;-53
2022/10/31 08:40:39;;;;;;;4.67;0.97;;;;;;;30.45;31.20;95749.41;5132896;27;20434;-53
2022/10/31 08:43:12;;;;;;;2.20;1.27;;;;;;;30.43;30.60;95743.53;5132801;27;20925;-53
2022/10/31 08:45:41;;;;;;;1.13;0.93;;;;;;;31.14;29.91;95742.53;5132642;27;20919;-53
2022/10/31 08:48:13;;;;;;;3.03;2.83;;;;;;;32.20;28.79;95747.88;5132704;27;20430;-53
2022/10/31 08:50:41;;;;;;;0.40;0.33;;;;;;;32.94;28.15;95731.03;5132657;27;20528;-53
2022/10/31 08:53:12;;;;;;;0.70;0.50;;;;;;;32.96;27.69;95728.69;5132779;27;20429;-53
2022/10/31 08:55:42;;;;;;;0.80;0.70;;;;;;;31.20;28.63;95724.53;5132918;27;20953;-53
2022/10/31 08:58:13;;;;;;;0.50;0.40;;;;;;;31.33;28.79;95735.84;5132832;27;20858;-53
2022/10/31 09:00:41;;;;;;;0.40;0.37;;;;;;;32.31;28.13;95732.16;5133084;27;20457;-53
2022/10/31 09:03:13;;;;;;;0.60;0.50;;;;;;;33.09;27.68;95720.78;5132502;27;20433;-53
2022/10/31 09:05:42;;;;;;;1.70;0.50;;;;;;;32.97;27.64;95674.50;5132583;27;20419;-53
2022/10/31 09:08:11;;;;;;;0.40;0.40;;;;;;;33.33;27.06;95716.25;5132376;27;20436;-53
2022/10/31 09:10:45;;;;;;;0.60;0.40;;;;;;;32.80;27.46;95722.09;5132156;27;20985;-53
2022/10/31 09:13:14;;;;;;;0.30;0.20;;;;;;;32.13;28.00;95717.72;5132397;27;20422;-53
2022/10/31 09:15:44;;;;;;;0.70;0.50;;;;;;;32.27;28.32;95725.91;5132448;27;20442;-54
2022/10/31 09:18:16;;;;;;;0.33;0.30;;;;;;;32.03;28.12;95717.78;5132371;27;20437;-54
2022/10/31 09:20:46;;;;;;;0.83;0.83;;;;;;;31.79;28.53;95728.38;5132863;27;20431;-54
2022/10/31 09:23:16;;;;;;;6.13;2.37;;;;;;;31.75;28.42;95716.63;5132500;27;20930;-54
2022/10/31 09:25:45;;;;;;;0.50;0.50;;;;;;;30.69;29.55;95740.47;5132278;27;20474;-54
2022/10/31 09:28:19;;;;;;;0.50;0.50;;;;;;;30.81;28.75;95737.38;5132433;27;20471;-54
2022/10/31 09:30:48;;;;;;;0.37;0.30;;;;;;;32.05;27.73;95727.19;5132462;27;20859;-54
2022/10/31 09:33:18;;;;;;;1.67;0.30;;;;;;;30.72;28.69;95745.16;5132204;27;20435;-54
2022/10/31 09:35:47;;;;;;;0.40;0.30;;;;;;;31.24;28.76;95727.25;5132401;27;20434;-53
2022/10/31 09:38:18;;;;;;;0.30;0.27;;;;;;;30.95;28.09;95676.41;5134752;27;20441;-55
2022/10/31 09:40:50;;;;;;;0.40;0.40;;;;;;;31.10;27.98;95722.56;5136290;27;20419;-54
2022/10/31 09:43:26;;;;;;;0.30;0.20;;;;;;;32.46;27.25;95711.69;5136070;27;20433;-57
2022/10/31 09:46:05;;;;;;;0.40;0.40;;;;;;;33.36;26.21;95715.44;5136035;27;20773;-54
2022/10/31 09:48:50;;;;;;;0.57;0.57;;;;;;;33.03;26.84;95709.44;5136122;27;20196;-54
2022/10/31 09:51:24;;;;;;;0.33;0.30;;;;;;;31.54;27.60;95716.69;5136224;27;20216;-54
2022/10/31 09:53:58;;;;;;;0.83;0.83;;;;;;;32.66;27.02;95711.22;5136033;27;20184;-54
2022/10/31 09:56:28;;;;;;;0.40;0.30;;;;;;;32.27;26.97;95709.44;5135866;27;20199;-54
2022/10/31 09:59:00;;;;;;;0.40;0.30;;;;;;;32.22;26.82;95709.84;5135799;27;20517;-54
2022/10/31 10:01:39;;;;;;;0.30;0.20;;;;;;;31.70;27.67;95699.84;5136058;27;20189;-55
2022/10/31 10:04:28;;;;;;;0.30;0.30;;;;;;;32.32;26.95;95697.25;5136237;27;20193;-55
2022/10/31 10:06:57;;;;;;;0.30;0.30;;;;;;;32.36;27.97;95698.03;5135993;27;20184;-55
2022/10/31 10:09:27;;;;;;;0.30;0.30;;;;;;;32.39;26.85;95708.19;5135474;27;20205;-53
2022/10/31 10:12:07;;;;;;;1.13;0.30;;;;;;;33.88;25.96;95696.88;5135514;27;20185;-54
2022/10/31 10:14:46;;;;;;;0.30;0.30;;;;;;;32.96;25.88;95687.47;5135366;27;20189;-54
2022/10/31 10:17:31;;;;;;;0.40;0.30;;;;;;;32.87;26.43;95691.84;5135795;27;20188;-54
2022/10/31 10:20:21;;;;;;;0.40;0.40;;;;;;;32.20;26.26;95692.25;5135506;27;20189;-54
2022/10/31 10:22:56;;;;;;;1.13;0.93;;;;;;;32.20;26.97;95690.28;5135241;27;20188;-54
2022/10/31 10:25:30;;;;;;;0.90;0.90;;;;;;;32.30;26.76;95692.19;5135197;27;20304;-54
2022/10/31 10:28:11;;;;;;;0.40;0.33;;;;;;;32.67;26.49;95690.81;5135606;27;20185;-54
2022/10/31 10:30:43;;;;;;;0.50;0.30;;;;;;;33.33;25.35;95681.31;5135326;27;20549;-54
2022/10/31 10:33:15;;;;;;;0.40;0.30;;;;;;;32.86;25.67;95680.09;5135038;27;20185;-54
2022/10/31 10:35:51;;;;;;;0.60;0.60;;;;;;;33.69;25.76;95676.25;5135239;27;20185;-54
2022/10/31 10:38:28;;;;;;;0.30;0.30;;;;;;;33.99;25.57;95684.56;5135023;27;20181;-54
2022/10/31 10:40:57;;;;;;;0.53;0.40;;;;;;;34.88;24.65;95678.69;5134894;27;20187;-54
2022/10/31 10:43:33;;;;;;;0.40;0.40;;;;;;;35.65;24.10;95676.59;5135068;27;20188;-54
2022/10/31 10:49:13;;;;;;;0.35;0.30;;;;;;;34.59;24.31;95669.25;5131620;27;20193;-54
2022/10/31 10:51:47;;;;;;;0.40;0.40;;;;;;;33.96;25.35;95670.84;5133588;27;20205;-55
2022/10/31 10:55:00;;;;;;;2.20;0.30;;;;;;;32.62;25.82;95670.06;5134304;27;20332;-55
2022/10/31 10:57:40;;;;;;;0.40;0.30;;;;;;;31.66;26.09;95671.63;5134597;27;20192;-55
2022/10/31 11:00:19;;;;;;;0.30;0.20;;;;;;;31.19;26.87;95676.41;5134665;27;20181;-55
2022/10/31 11:02:48;;;;;;;0.40;0.20;;;;;;;32.40;26.33;95643.91;5132364;27;20207;-55
2022/10/31 11:05:25;;;;;;;0.50;0.30;;;;;;;31.58;26.77;95676.34;5133133;27;20185;-55
2022/10/31 11:07:54;;;;;;;0.40;0.37;;;;;;;32.05;26.65;95671.53;5133602;27;20198;-55
2022/10/31 11:10:23;;;;;;;1.33;1.23;;;;;;;32.81;26.34;95666.03;5133967;27;20696;-55
2022/10/31 11:13:23;;;;;;;0.40;0.30;;;;;;;32.52;26.22;95673.66;5134311;27;20192;-55
2022/10/31 11:15:56;;;;;;;0.30;0.20;;;;;;;32.35;25.76;95664.34;5134317;27;20208;-55
2022/10/31 11:18:28;;;;;;;0.30;0.30;;;;;;;33.00;25.53;95646.25;5134147;27;20189;-55
2022/10/31 11:20:58;;;;;;;0.30;0.27;;;;;;;33.64;24.79;95649.22;5133332;27;20200;-55
2022/10/31 11:23:29;;;;;;;1.80;0.60;;;;;;;33.90;24.30;95656.78;5134242;27;20185;-55
2022/10/31 11:25:59;;;;;;;0.70;0.70;;;;;;;32.69;25.15;95642.56;5133974;27;20224;-55
2022/10/31 11:28:30;;;;;;;0.40;0.30;;;;;;;31.30;27.02;95652.50;5133979;27;20185;-55
2022/10/31 11:31:00;;;;;;;0.70;0.50;;;;;;;31.88;26.38;95656.69;5134144;27;20730;-56
2022/10/31 11:33:33;;;;;;;0.60;0.40;;;;;;;31.66;26.55;95660.69;5134273;27;20193;-56
2022/10/31 11:36:03;;;;;;;0.53;0.40;;;;;;;31.19;26.77;95659.97;5133622;27;20580;-56
2022/10/31 11:38:40;;;;;;;0.40;0.40;;;;;;;30.65;27.32;95617.34;5133567;27;20189;-56
2022/10/31 11:41:15;;;;;;;0.30;0.20;;;;;;;30.85;27.88;95653.31;5133994;27;20648;-56
2022/10/31 11:43:50;;;;;;;0.40;0.30;;;;;;;31.58;26.74;95650.91;5133035;27;20414;-57
2022/10/31 11:46:23;;;;;;;0.40;0.33;;;;;;;31.38;26.54;95656.81;5133888;27;20207;-56
2022/10/31 11:48:55;;;;;;;2.60;0.40;;;;;;;32.05;26.34;95661.34;5133498;27;20430;-56
2022/10/31 11:51:26;;;;;;;0.73;0.60;;;;;;;31.08;26.84;95664.66;5133155;27;20458;-54
2022/10/31 11:53:58;;;;;;;0.40;0.30;;;;;;;30.50;27.30;95662.28;5133764;27;20437;-56
2022/10/31 11:56:40;;;;;;;0.63;0.30;;;;;;;30.43;27.96;95654.06;5133321;27;20194;-55
2022/10/31 11:59:21;;;;;;;0.40;0.40;;;;;;;30.22;28.37;95662.16;5133221;27;20440;-55